WetterOnline ( http://www.wetteronline.de )

Wetter aktuell Soltau

Aktuelles Wetter: Soltau (76m)

6-stündlich | Neueste Meldungen
Ortszeit Temperatur Wetter
So, 22.07. 20:00 23.3° C leicht bewölkt
So, 22.07. 14:00 27.9° C fast wolkenlos
So, 22.07. 8:00 20.4° C wolkig
So, 22.07. 2:00 19.2° C bedeckt
Sa, 21.07. 20:00 25.3° C bedeckt
Sa, 21.07. 14:00 25.4° C bedeckt
Sa, 21.07. 8:00 18.0° C bewölkt
Sa, 21.07. 2:00 17.1° C leicht bewölkt
Ortszeit Temperatur Wetter
So, 22.07. 20:00 23.3° C leicht bewölkt
So, 22.07. 19:50 23.3° C leicht bewölkt
So, 22.07. 19:40 23.2° C fast wolkenlos
So, 22.07. 19:30 24.1° C fast wolkenlos
So, 22.07. 19:20 24.1° C fast wolkenlos
So, 22.07. 19:10 24.4° C wolkenlos
So, 22.07. 19:00 24.8° C fast wolkenlos
So, 22.07. 18:30 24.9° C leicht bewölkt
So, 22.07. 18:00 26.0° C wolkig
So, 22.07. 17:30 25.8° C bewölkt
So, 22.07. 17:00 26.3° C bewölkt
Ortszeit Relative Feuchte Sichtweite
So, 22.07. 20:00 52% 45 km
So, 22.07. 14:00 37% 26 km
So, 22.07. 8:00 65% 14 km
So, 22.07. 2:00 67% 26 km
Sa, 21.07. 20:00 42% 15 km
Sa, 21.07. 14:00 37% 55 km
Sa, 21.07. 8:00 55% 70 km
Sa, 21.07. 2:00 51% 60 km
Ortszeit Relative Feuchte Sichtweite
So, 22.07. 20:00 52% 45 km
So, 22.07. 19:50 52% -
So, 22.07. 19:40 53% -
So, 22.07. 19:30 51% 30 km
So, 22.07. 19:20 51% -
So, 22.07. 19:10 50% -
So, 22.07. 19:00 50% 23 km
So, 22.07. 18:30 52% 21 km
So, 22.07. 18:00 48% 35 km
So, 22.07. 17:30 47% 30 km
So, 22.07. 17:00 42% 40 km
Ortszeit Niederschlagsmenge Niederschlagsart
So, 22.07. 20:00 0.0 l/m2 in 12 Std. -
So, 22.07. 14:00 0.0 l/m2 in 6 Std. -
So, 22.07. 8:00 0.0 l/m2 in 12 Std. -
So, 22.07. 2:00 0.0 l/m2 in 6 Std. -
Sa, 21.07. 20:00 0.0 l/m2 in 12 Std. -
Sa, 21.07. 14:00 0.0 l/m2 in 6 Std. -
Sa, 21.07. 8:00 0.0 l/m2 in 12 Std. -
Sa, 21.07. 2:00 0.0 l/m2 in 6 Std. -
Ortszeit Niederschlagsmenge Niederschlagsart
So, 22.07. 20:00 0.0 l/m2 in 1 Std. -
So, 22.07. 19:50 keine Meldung -
So, 22.07. 19:40 keine Meldung -
So, 22.07. 19:30 0.0 l/m2 in 1 Std. -
So, 22.07. 19:20 keine Meldung -
So, 22.07. 19:10 keine Meldung -
So, 22.07. 19:00 0.0 l/m2 in 1 Std. -
So, 22.07. 18:30 0.0 l/m2 in 1 Std. -
So, 22.07. 18:00 0.0 l/m2 in 1 Std. -
So, 22.07. 17:30 0.0 l/m2 in 1 Std. -
So, 22.07. 17:00 0.0 l/m2 in 1 Std. -
Ortszeit Stärke Spitze Richtung
km/h Bft. km/h Grad Sektor
So, 22.07. 20:00 14 3 32 330° NW
So, 22.07. 14:00 14 3 29 270° W
So, 22.07. 8:00 7 2 14 220° SW
So, 22.07. 2:00 4 1 14 100° O
Sa, 21.07. 20:00 7 2 31 50° NO
Sa, 21.07. 14:00 13 3 24 70° O
Sa, 21.07. 8:00 7 2 17 100° O
Sa, 21.07. 2:00 7 2 22 100° O
Ortszeit Stärke Spitze Richtung
km/h Bft. km/h Grad Sektor
So, 22.07. 20:00 14 3 29 330° NW
So, 22.07. 19:50 14 3 - 330° NW
So, 22.07. 19:40 20 4 - 310° NW
So, 22.07. 19:30 20 4 30 300° NW
So, 22.07. 19:20 20 4 - 300° NW
So, 22.07. 19:10 20 4 - 300° NW
So, 22.07. 19:00 20 4 33 320° NW
So, 22.07. 18:30 22 4 32 320° NW
So, 22.07. 18:00 19 3 31 300° NW
So, 22.07. 17:30 22 4 32 310° NW
So, 22.07. 17:00 18 3 32 290° W
Ortszeit Untergrenze Bedeckung Gattung
total tief tief mittel hoch
So, 22.07. 20:00 9000 m 3/8 0/8 - - -
So, 22.07. 14:00 9000 m 1/8 0/8 - - -
So, 22.07. 8:00 3600 m 7/8 7/8 - - -
So, 22.07. 2:00 3000 m 8/8 8/8 - - -
Sa, 21.07. 20:00 3000 m 8/8 8/8 - - -
Sa, 21.07. 14:00 3300 m 8/8 8/8 - - -
Sa, 21.07. 8:00 2400 m 8/8 4/8 - - -
Sa, 21.07. 2:00 3000 m 2/8 2/8 - - -
Ortszeit Bedeckungsgrad in Achtel und Wolkenuntergrenze
So, 22.07. 20:00 3(9000m)
So, 22.07. 19:50 3(9000m)
So, 22.07. 19:40 2(9000m)
So, 22.07. 19:30 1(9000m)
So, 22.07. 19:20 1(9000m)
So, 22.07. 19:10 keine Wolken
So, 22.07. 19:00 1(1410m)
So, 22.07. 18:30 3(2100m) 2(2100m) 3(2400m)
So, 22.07. 18:00 6(2100m)
So, 22.07. 17:30 4(1500m) 7(2100m) 7(2400m)
So, 22.07. 17:00 7(1800m) 7(10500m)
Ortszeit Luftdruck NN (hPa) Tendenz (hPa in 3 Std.)
So, 22.07. 20:00 1014 + 0,9
So, 22.07. 14:00 1013 + 0,3
So, 22.07. 8:00 1012 + 0,7
So, 22.07. 2:00 1011 - 0,3
Sa, 21.07. 20:00 1011 - 0,5
Sa, 21.07. 14:00 1012 - 0,4
Sa, 21.07. 8:00 1012 - 0,1
Sa, 21.07. 2:00 1013 - 0,3
Ortszeit Luftdruck NN (hPa) Tendenz (hPa in 3 Std.)
So, 22.07. 20:00 1014 + 0,9
So, 22.07. 19:50 1014 keine Meldung
So, 22.07. 19:40 1014 keine Meldung
So, 22.07. 19:30 1014 + 0,8
So, 22.07. 19:20 1014 keine Meldung
So, 22.07. 19:10 1014 keine Meldung
So, 22.07. 19:00 1014 + 0,9
So, 22.07. 18:30 1014 + 0,9
So, 22.07. 18:00 1013 + 0,8
So, 22.07. 17:30 1013 + 0,6
So, 22.07. 17:00 1013 + 0,3
Ortszeit Schneehöhe (cm)
So, 22.07. 20:00 -
So, 22.07. 14:00 -
So, 22.07. 8:00 -
So, 22.07. 2:00 -
Sa, 21.07. 20:00 -
Sa, 21.07. 14:00 -
Sa, 21.07. 8:00 -
Sa, 21.07. 2:00 -
Ortszeit Schneehöhe (cm)
So, 22.07. 20:00 -
So, 22.07. 19:50 -
So, 22.07. 19:40 -
So, 22.07. 19:30 -
So, 22.07. 19:20 -
So, 22.07. 19:10 -
So, 22.07. 19:00 -
So, 22.07. 18:30 -
So, 22.07. 18:00 -
So, 22.07. 17:30 -
So, 22.07. 17:00 -
Link zu dieser Seite / Seite empfehlen

Das Wetter in ...